sensor_id;sensor_type;location;lat;lon;timestamp;pressure;altitude;pressure_sealevel;temperature;humidity
78890;BME280;68279;48.964;14.502;2024-03-02T00:00:22;96096.09;;;3.56;100.00
78890;BME280;68279;48.964;14.502;2024-03-02T00:02:50;96095.81;;;3.47;100.00
78890;BME280;68279;48.964;14.502;2024-03-02T00:05:20;96097.09;;;3.39;100.00
78890;BME280;68279;48.964;14.502;2024-03-02T00:07:57;96094.78;;;3.58;100.00
78890;BME280;68279;48.964;14.502;2024-03-02T00:10:25;96091.63;;;3.61;100.00
78890;BME280;68279;48.964;14.502;2024-03-02T00:12:58;96095.50;;;3.44;100.00
78890;BME280;68279;48.964;14.502;2024-03-02T00:15:46;96089.44;;;3.43;100.00
78890;BME280;68279;48.964;14.502;2024-03-02T00:18:14;96094.13;;;3.31;100.00
78890;BME280;68279;48.964;14.502;2024-03-02T00:20:41;96099.97;;;3.33;100.00
78890;BME280;68279;48.964;14.502;2024-03-02T00:23:20;96100.59;;;3.08;100.00
78890;BME280;68279;48.964;14.502;2024-03-02T00:25:54;96090.19;;;2.91;100.00
78890;BME280;68279;48.964;14.502;2024-03-02T00:28:36;96096.03;;;2.93;100.00
78890;BME280;68279;48.964;14.502;2024-03-02T00:31:08;96090.84;;;2.71;100.00
78890;BME280;68279;48.964;14.502;2024-03-02T00:33:40;96086.09;;;2.68;100.00
78890;BME280;68279;48.964;14.502;2024-03-02T00:36:37;96085.28;;;2.68;100.00
78890;BME280;68279;48.964;14.502;2024-03-02T00:39:03;96085.00;;;2.64;100.00
78890;BME280;68279;48.964;14.502;2024-03-02T00:41:33;96082.31;;;2.59;100.00
78890;BME280;68279;48.964;14.502;2024-03-02T00:44:04;96083.78;;;2.77;100.00
78890;BME280;68279;48.964;14.502;2024-03-02T00:46:34;96084.38;;;2.84;100.00
78890;BME280;68279;48.964;14.502;2024-03-02T00:49:02;96084.91;;;2.86;100.00
78890;BME280;68279;48.964;14.502;2024-03-02T00:51:31;96078.50;;;2.82;100.00
78890;BME280;68279;48.964;14.502;2024-03-02T00:54:01;96080.81;;;2.73;100.00
78890;BME280;68279;48.964;14.502;2024-03-02T00:56:29;96087.34;;;2.61;100.00
78890;BME280;68279;48.964;14.502;2024-03-02T00:58:55;96089.47;;;2.64;100.00
78890;BME280;68279;48.964;14.502;2024-03-02T01:01:21;96085.97;;;2.53;100.00
78890;BME280;68279;48.964;14.502;2024-03-02T01:03:47;96086.94;;;2.42;100.00
78890;BME280;68279;48.964;14.502;2024-03-02T01:06:12;96084.31;;;2.47;100.00
78890;BME280;68279;48.964;14.502;2024-03-02T01:08:39;96082.44;;;2.42;100.00
78890;BME280;68279;48.964;14.502;2024-03-02T01:11:06;96087.69;;;2.37;100.00
78890;BME280;68279;48.964;14.502;2024-03-02T01:13:31;96089.06;;;2.45;100.00
78890;BME280;68279;48.964;14.502;2024-03-02T01:15:58;96096.38;;;2.38;100.00
78890;BME280;68279;48.964;14.502;2024-03-02T01:18:25;96090.38;;;2.42;100.00
78890;BME280;68279;48.964;14.502;2024-03-02T01:20:51;96082.34;;;2.64;100.00
78890;BME280;68279;48.964;14.502;2024-03-02T01:23:20;96091.91;;;2.70;100.00
78890;BME280;68279;48.964;14.502;2024-03-02T01:25:46;96092.81;;;2.86;100.00
78890;BME280;68279;48.964;14.502;2024-03-02T01:28:14;96084.91;;;2.86;100.00
78890;BME280;68279;48.964;14.502;2024-03-02T01:30:40;96081.88;;;3.09;100.00
78890;BME280;68279;48.964;14.502;2024-03-02T01:33:05;96084.00;;;3.18;100.00
78890;BME280;68279;48.964;14.502;2024-03-02T01:35:32;96082.19;;;3.23;100.00
78890;BME280;68279;48.964;14.502;2024-03-02T01:37:58;96080.09;;;3.20;100.00
78890;BME280;68279;48.964;14.502;2024-03-02T01:40:23;96073.75;;;3.21;100.00
78890;BME280;68279;48.964;14.502;2024-03-02T01:42:53;96070.53;;;3.14;100.00
78890;BME280;68279;48.964;14.502;2024-03-02T01:45:23;96067.31;;;3.02;100.00
78890;BME280;68279;48.964;14.502;2024-03-02T01:47:49;96076.66;;;2.77;100.00
78890;BME280;68279;48.964;14.502;2024-03-02T01:50:14;96068.59;;;2.57;100.00
78890;BME280;68279;48.964;14.502;2024-03-02T01:52:40;96073.50;;;2.43;100.00
78890;BME280;68279;48.964;14.502;2024-03-02T01:55:06;96071.94;;;2.84;100.00
78890;BME280;68279;48.964;14.502;2024-03-02T01:57:33;96075.38;;;2.85;100.00
78890;BME280;68279;48.964;14.502;2024-03-02T02:00:00;96076.00;;;2.60;100.00
78890;BME280;68279;48.964;14.502;2024-03-02T02:02:26;96079.63;;;2.49;100.00
78890;BME280;68279;48.964;14.502;2024-03-02T02:04:51;96076.91;;;2.44;100.00
78890;BME280;68279;48.964;14.502;2024-03-02T02:07:18;96079.19;;;2.30;100.00
78890;BME280;68279;48.964;14.502;2024-03-02T02:09:43;96084.00;;;2.38;100.00
78890;BME280;68279;48.964;14.502;2024-03-02T02:12:10;96077.34;;;2.31;100.00
78890;BME280;68279;48.964;14.502;2024-03-02T02:14:36;96079.19;;;2.30;100.00
78890;BME280;68279;48.964;14.502;2024-03-02T02:17:02;96088.34;;;2.22;100.00
78890;BME280;68279;48.964;14.502;2024-03-02T02:19:28;96091.47;;;2.19;100.00
78890;BME280;68279;48.964;14.502;2024-03-02T02:21:54;96082.75;;;2.14;100.00
78890;BME280;68279;48.964;14.502;2024-03-02T02:24:20;96075.47;;;2.58;100.00
78890;BME280;68279;48.964;14.502;2024-03-02T02:26:46;96072.19;;;2.46;100.00
78890;BME280;68279;48.964;14.502;2024-03-02T02:29:11;96072.16;;;2.41;100.00
78890;BME280;68279;48.964;14.502;2024-03-02T02:31:40;96070.25;;;2.36;100.00
78890;BME280;68279;48.964;14.502;2024-03-02T02:34:06;96063.44;;;2.40;100.00
78890;BME280;68279;48.964;14.502;2024-03-02T02:36:32;96064.94;;;2.31;100.00
78890;BME280;68279;48.964;14.502;2024-03-02T02:39:02;96061.19;;;2.22;100.00
78890;BME280;68279;48.964;14.502;2024-03-02T02:41:30;96070.72;;;2.01;100.00
78890;BME280;68279;48.964;14.502;2024-03-02T02:43:56;96068.25;;;1.89;100.00
78890;BME280;68279;48.964;14.502;2024-03-02T02:46:22;96070.94;;;1.94;100.00
78890;BME280;68279;48.964;14.502;2024-03-02T02:48:47;96066.84;;;1.82;100.00
78890;BME280;68279;48.964;14.502;2024-03-02T02:51:13;96065.25;;;1.81;100.00
78890;BME280;68279;48.964;14.502;2024-03-02T02:53:38;96066.13;;;1.86;100.00
78890;BME280;68279;48.964;14.502;2024-03-02T02:56:08;96072.63;;;1.79;100.00
78890;BME280;68279;48.964;14.502;2024-03-02T02:58:34;96077.66;;;1.58;100.00
78890;BME280;68279;48.964;14.502;2024-03-02T03:00:59;96072.47;;;1.41;100.00
78890;BME280;68279;48.964;14.502;2024-03-02T03:03:25;96070.38;;;1.44;100.00
78890;BME280;68279;48.964;14.502;2024-03-02T03:05:51;96067.69;;;1.38;100.00
78890;BME280;68279;48.964;14.502;2024-03-02T03:08:16;96071.66;;;1.19;100.00
78890;BME280;68279;48.964;14.502;2024-03-02T03:10:42;96069.75;;;1.14;100.00
78890;BME280;68279;48.964;14.502;2024-03-02T03:13:09;96068.03;;;1.03;100.00
78890;BME280;68279;48.964;14.502;2024-03-02T03:15:35;96069.06;;;1.02;100.00
78890;BME280;68279;48.964;14.502;2024-03-02T03:18:04;96073.38;;;1.08;100.00
78890;BME280;68279;48.964;14.502;2024-03-02T03:20:31;96077.84;;;1.08;100.00
78890;BME280;68279;48.964;14.502;2024-03-02T03:22:57;96082.47;;;1.01;100.00
78890;BME280;68279;48.964;14.502;2024-03-02T03:25:23;96079.53;;;0.97;100.00
78890;BME280;68279;48.964;14.502;2024-03-02T03:27:48;96074.78;;;0.77;100.00
78890;BME280;68279;48.964;14.502;2024-03-02T03:30:15;96078.91;;;0.90;100.00
78890;BME280;68279;48.964;14.502;2024-03-02T03:32:41;96075.66;;;0.66;100.00
78890;BME280;68279;48.964;14.502;2024-03-02T03:35:07;96078.84;;;0.68;100.00
78890;BME280;68279;48.964;14.502;2024-03-02T03:37:32;96078.28;;;0.83;100.00
78890;BME280;68279;48.964;14.502;2024-03-02T03:40:05;96081.03;;;1.10;100.00
78890;BME280;68279;48.964;14.502;2024-03-02T03:42:39;96092.00;;;1.24;100.00
78890;BME280;68279;48.964;14.502;2024-03-02T03:45:08;96095.22;;;1.09;100.00
78890;BME280;68279;48.964;14.502;2024-03-02T03:47:34;96094.22;;;0.93;100.00
78890;BME280;68279;48.964;14.502;2024-03-02T03:50:00;96099.34;;;0.66;100.00
78890;BME280;68279;48.964;14.502;2024-03-02T03:52:25;96096.63;;;0.61;100.00
78890;BME280;68279;48.964;14.502;2024-03-02T03:54:51;96098.06;;;0.69;100.00
78890;BME280;68279;48.964;14.502;2024-03-02T03:57:17;96098.78;;;0.81;100.00
78890;BME280;68279;48.964;14.502;2024-03-02T03:59:43;96098.44;;;0.94;100.00
78890;BME280;68279;48.964;14.502;2024-03-02T04:02:08;96099.31;;;1.00;100.00
78890;BME280;68279;48.964;14.502;2024-03-02T04:04:35;96096.34;;;0.96;100.00
78890;BME280;68279;48.964;14.502;2024-03-02T04:07:01;96093.59;;;0.86;100.00
78890;BME280;68279;48.964;14.502;2024-03-02T04:09:26;96093.13;;;0.89;100.00
78890;BME280;68279;48.964;14.502;2024-03-02T04:11:52;96087.38;;;0.75;100.00
78890;BME280;68279;48.964;14.502;2024-03-02T04:14:18;96092.16;;;0.78;100.00
78890;BME280;68279;48.964;14.502;2024-03-02T04:16:43;96097.41;;;0.95;100.00
78890;BME280;68279;48.964;14.502;2024-03-02T04:19:09;96091.66;;;0.98;100.00
78890;BME280;68279;48.964;14.502;2024-03-02T04:21:35;96090.41;;;1.23;100.00
78890;BME280;68279;48.964;14.502;2024-03-02T04:24:01;96090.97;;;1.25;100.00
78890;BME280;68279;48.964;14.502;2024-03-02T04:26:27;96096.78;;;1.27;100.00
78890;BME280;68279;48.964;14.502;2024-03-02T04:28:53;96094.81;;;1.17;100.00
78890;BME280;68279;48.964;14.502;2024-03-02T04:31:19;96092.06;;;1.29;100.00
78890;BME280;68279;48.964;14.502;2024-03-02T04:33:46;96091.63;;;1.15;100.00
78890;BME280;68279;48.964;14.502;2024-03-02T04:36:12;96090.50;;;1.11;100.00
78890;BME280;68279;48.964;14.502;2024-03-02T04:38:38;96087.34;;;1.09;100.00
78890;BME280;68279;48.964;14.502;2024-03-02T04:41:07;96094.97;;;1.10;100.00
78890;BME280;68279;48.964;14.502;2024-03-02T04:43:33;96103.75;;;1.16;100.00
78890;BME280;68279;48.964;14.502;2024-03-02T04:45:59;96094.56;;;1.19;100.00
78890;BME280;68279;48.964;14.502;2024-03-02T04:48:25;96103.81;;;1.21;100.00
78890;BME280;68279;48.964;14.502;2024-03-02T04:50:50;96096.06;;;1.14;100.00
78890;BME280;68279;48.964;14.502;2024-03-02T04:53:16;96103.19;;;1.14;100.00
78890;BME280;68279;48.964;14.502;2024-03-02T04:55:42;96098.06;;;1.24;100.00
78890;BME280;68279;48.964;14.502;2024-03-02T04:58:08;96092.44;;;1.37;100.00
78890;BME280;68279;48.964;14.502;2024-03-02T05:00:34;96106.59;;;1.53;100.00
78890;BME280;68279;48.964;14.502;2024-03-02T05:03:00;96105.84;;;1.58;100.00
78890;BME280;68279;48.964;14.502;2024-03-02T05:05:26;96107.75;;;1.62;100.00
78890;BME280;68279;48.964;14.502;2024-03-02T05:07:52;96107.00;;;1.67;100.00
78890;BME280;68279;48.964;14.502;2024-03-02T05:10:18;96112.91;;;1.74;100.00
78890;BME280;68279;48.964;14.502;2024-03-02T05:12:44;96112.72;;;1.81;100.00
78890;BME280;68279;48.964;14.502;2024-03-02T05:15:14;96104.63;;;1.87;100.00
78890;BME280;68279;48.964;14.502;2024-03-02T05:17:40;96111.41;;;2.05;100.00
78890;BME280;68279;48.964;14.502;2024-03-02T05:20:08;96112.00;;;2.12;100.00
78890;BME280;68279;48.964;14.502;2024-03-02T05:22:35;96109.84;;;2.09;100.00
78890;BME280;68279;48.964;14.502;2024-03-02T05:25:01;96108.00;;;2.10;100.00
78890;BME280;68279;48.964;14.502;2024-03-02T05:27:27;96112.38;;;1.99;100.00
78890;BME280;68279;48.964;14.502;2024-03-02T05:29:53;96115.97;;;1.88;100.00
78890;BME280;68279;48.964;14.502;2024-03-02T05:32:18;96124.56;;;1.78;100.00
78890;BME280;68279;48.964;14.502;2024-03-02T05:34:44;96125.03;;;1.75;100.00
78890;BME280;68279;48.964;14.502;2024-03-02T05:37:09;96125.22;;;1.68;100.00
78890;BME280;68279;48.964;14.502;2024-03-02T05:39:35;96132.56;;;1.66;100.00
78890;BME280;68279;48.964;14.502;2024-03-02T05:42:01;96133.38;;;1.89;100.00
78890;BME280;68279;48.964;14.502;2024-03-02T05:44:26;96130.84;;;2.26;100.00
78890;BME280;68279;48.964;14.502;2024-03-02T05:46:52;96134.97;;;2.44;100.00
78890;BME280;68279;48.964;14.502;2024-03-02T05:49:17;96134.81;;;2.55;100.00
78890;BME280;68279;48.964;14.502;2024-03-02T05:51:43;96144.34;;;2.57;100.00
78890;BME280;68279;48.964;14.502;2024-03-02T05:54:09;96150.25;;;2.69;100.00
78890;BME280;68279;48.964;14.502;2024-03-02T05:56:35;96153.13;;;2.67;100.00
78890;BME280;68279;48.964;14.502;2024-03-02T05:59:00;96148.13;;;2.71;100.00
78890;BME280;68279;48.964;14.502;2024-03-02T06:01:45;96145.41;;;2.61;100.00
78890;BME280;68279;48.964;14.502;2024-03-02T06:04:12;96148.25;;;2.54;100.00
78890;BME280;68279;48.964;14.502;2024-03-02T06:06:39;96144.00;;;2.48;100.00
78890;BME280;68279;48.964;14.502;2024-03-02T06:09:06;96150.22;;;2.37;100.00
78890;BME280;68279;48.964;14.502;2024-03-02T06:11:40;96151.09;;;2.20;100.00
78890;BME280;68279;48.964;14.502;2024-03-02T06:14:07;96152.25;;;2.30;100.00
78890;BME280;68279;48.964;14.502;2024-03-02T06:16:33;96153.72;;;2.20;100.00
78890;BME280;68279;48.964;14.502;2024-03-02T06:18:59;96158.38;;;2.08;100.00
78890;BME280;68279;48.964;14.502;2024-03-02T06:21:25;96161.97;;;2.02;100.00
78890;BME280;68279;48.964;14.502;2024-03-02T06:23:51;96166.53;;;2.07;100.00
78890;BME280;68279;48.964;14.502;2024-03-02T06:26:18;96175.59;;;2.16;100.00
78890;BME280;68279;48.964;14.502;2024-03-02T06:28:44;96176.88;;;2.13;100.00
78890;BME280;68279;48.964;14.502;2024-03-02T06:31:11;96176.38;;;2.16;100.00
78890;BME280;68279;48.964;14.502;2024-03-02T06:33:37;96179.75;;;2.12;100.00
78890;BME280;68279;48.964;14.502;2024-03-02T06:36:05;96177.19;;;2.17;100.00
78890;BME280;68279;48.964;14.502;2024-03-02T06:38:34;96183.09;;;2.29;100.00
78890;BME280;68279;48.964;14.502;2024-03-02T06:40:59;96182.19;;;2.40;100.00
78890;BME280;68279;48.964;14.502;2024-03-02T06:43:25;96191.03;;;2.56;100.00
78890;BME280;68279;48.964;14.502;2024-03-02T06:45:51;96188.50;;;2.66;100.00
78890;BME280;68279;48.964;14.502;2024-03-02T06:48:17;96191.72;;;2.73;100.00
78890;BME280;68279;48.964;14.502;2024-03-02T06:50:49;96189.72;;;2.86;100.00
78890;BME280;68279;48.964;14.502;2024-03-02T06:53:15;96190.66;;;3.01;100.00
78890;BME280;68279;48.964;14.502;2024-03-02T06:55:46;96191.25;;;3.13;100.00
78890;BME280;68279;48.964;14.502;2024-03-02T06:58:15;96194.03;;;3.29;100.00
78890;BME280;68279;48.964;14.502;2024-03-02T07:00:43;96198.13;;;3.52;100.00
78890;BME280;68279;48.964;14.502;2024-03-02T07:03:13;96199.84;;;3.73;100.00
78890;BME280;68279;48.964;14.502;2024-03-02T07:05:40;96205.19;;;3.83;100.00
78890;BME280;68279;48.964;14.502;2024-03-02T07:08:06;96205.97;;;3.84;100.00
78890;BME280;68279;48.964;14.502;2024-03-02T07:10:33;96212.94;;;4.00;100.00
78890;BME280;68279;48.964;14.502;2024-03-02T07:12:58;96208.22;;;4.17;100.00
78890;BME280;68279;48.964;14.502;2024-03-02T07:15:24;96213.53;;;4.22;100.00
78890;BME280;68279;48.964;14.502;2024-03-02T07:17:53;96214.38;;;4.33;100.00
78890;BME280;68279;48.964;14.502;2024-03-02T07:20:18;96219.38;;;4.24;100.00
78890;BME280;68279;48.964;14.502;2024-03-02T07:22:44;96210.91;;;4.33;100.00
78890;BME280;68279;48.964;14.502;2024-03-02T07:25:10;96210.38;;;4.25;100.00
78890;BME280;68279;48.964;14.502;2024-03-02T07:27:36;96215.41;;;4.32;100.00
78890;BME280;68279;48.964;14.502;2024-03-02T07:30:02;96206.47;;;4.48;100.00
78890;BME280;68279;48.964;14.502;2024-03-02T07:32:30;96215.19;;;4.34;100.00
78890;BME280;68279;48.964;14.502;2024-03-02T07:34:55;96211.88;;;4.06;100.00
78890;BME280;68279;48.964;14.502;2024-03-02T07:37:22;96215.63;;;4.15;100.00
78890;BME280;68279;48.964;14.502;2024-03-02T07:39:50;96208.78;;;4.24;100.00
78890;BME280;68279;48.964;14.502;2024-03-02T07:42:16;96213.25;;;4.24;100.00
78890;BME280;68279;48.964;14.502;2024-03-02T07:44:44;96208.50;;;4.21;100.00
78890;BME280;68279;48.964;14.502;2024-03-02T07:47:10;96216.28;;;4.53;100.00
78890;BME280;68279;48.964;14.502;2024-03-02T07:49:36;96221.34;;;4.70;100.00
78890;BME280;68279;48.964;14.502;2024-03-02T07:52:01;96220.31;;;4.91;100.00
78890;BME280;68279;48.964;14.502;2024-03-02T07:54:27;96223.72;;;4.76;100.00
78890;BME280;68279;48.964;14.502;2024-03-02T07:56:53;96233.28;;;4.93;100.00
78890;BME280;68279;48.964;14.502;2024-03-02T07:59:19;96227.69;;;4.64;100.00
78890;BME280;68279;48.964;14.502;2024-03-02T08:01:49;96230.31;;;4.53;100.00
78890;BME280;68279;48.964;14.502;2024-03-02T08:04:14;96218.91;;;4.58;100.00
78890;BME280;68279;48.964;14.502;2024-03-02T08:06:40;96222.44;;;4.99;100.00
78890;BME280;68279;48.964;14.502;2024-03-02T08:09:05;96216.88;;;5.36;100.00
78890;BME280;68279;48.964;14.502;2024-03-02T08:11:36;96216.88;;;5.42;100.00
78890;BME280;68279;48.964;14.502;2024-03-02T08:14:02;96217.66;;;5.11;100.00
78890;BME280;68279;48.964;14.502;2024-03-02T08:16:28;96223.25;;;5.05;100.00
78890;BME280;68279;48.964;14.502;2024-03-02T08:18:54;96217.94;;;5.40;100.00
78890;BME280;68279;48.964;14.502;2024-03-02T08:21:22;96221.34;;;5.56;100.00
78890;BME280;68279;48.964;14.502;2024-03-02T08:23:48;96213.34;;;5.97;100.00
78890;BME280;68279;48.964;14.502;2024-03-02T08:26:13;96216.22;;;6.06;100.00
78890;BME280;68279;48.964;14.502;2024-03-02T08:28:39;96210.03;;;6.25;100.00
78890;BME280;68279;48.964;14.502;2024-03-02T08:31:06;96215.56;;;6.34;100.00
78890;BME280;68279;48.964;14.502;2024-03-02T08:33:32;96219.03;;;6.35;100.00
78890;BME280;68279;48.964;14.502;2024-03-02T08:35:58;96213.88;;;6.59;100.00
78890;BME280;68279;48.964;14.502;2024-03-02T08:38:24;96216.88;;;6.42;100.00
78890;BME280;68279;48.964;14.502;2024-03-02T08:40:50;96208.31;;;6.55;100.00
78890;BME280;68279;48.964;14.502;2024-03-02T08:43:16;96210.03;;;6.31;100.00
78890;BME280;68279;48.964;14.502;2024-03-02T08:45:42;96200.47;;;6.30;100.00
78890;BME280;68279;48.964;14.502;2024-03-02T08:48:08;96204.66;;;6.46;100.00
78890;BME280;68279;48.964;14.502;2024-03-02T08:50:35;96209.63;;;6.58;100.00
78890;BME280;68279;48.964;14.502;2024-03-02T08:53:00;96211.50;;;6.57;100.00
78890;BME280;68279;48.964;14.502;2024-03-02T08:55:26;96219.69;;;6.66;100.00
78890;BME280;68279;48.964;14.502;2024-03-02T08:57:52;96220.19;;;6.68;100.00
78890;BME280;68279;48.964;14.502;2024-03-02T09:00:17;96215.47;;;6.99;100.00
78890;BME280;68279;48.964;14.502;2024-03-02T09:02:44;96214.22;;;6.91;100.00
78890;BME280;68279;48.964;14.502;2024-03-02T09:05:10;96228.00;;;6.93;100.00
78890;BME280;68279;48.964;14.502;2024-03-02T09:07:35;96223.91;;;7.06;100.00
78890;BME280;68279;48.964;14.502;2024-03-02T09:10:01;96224.78;;;7.35;100.00
78890;BME280;68279;48.964;14.502;2024-03-02T09:12:26;96225.28;;;7.37;100.00
78890;BME280;68279;48.964;14.502;2024-03-02T09:14:52;96227.94;;;7.37;100.00
78890;BME280;68279;48.964;14.502;2024-03-02T09:17:18;96225.97;;;7.19;100.00
78890;BME280;68279;48.964;14.502;2024-03-02T09:19:43;96225.31;;;7.32;100.00
78890;BME280;68279;48.964;14.502;2024-03-02T09:22:09;96238.78;;;7.46;100.00
78890;BME280;68279;48.964;14.502;2024-03-02T09:24:35;96238.34;;;7.34;100.00
78890;BME280;68279;48.964;14.502;2024-03-02T09:27:01;96238.59;;;7.37;100.00
78890;BME280;68279;48.964;14.502;2024-03-02T09:29:27;96240.59;;;7.51;100.00
78890;BME280;68279;48.964;14.502;2024-03-02T09:31:52;96244.16;;;7.70;100.00
78890;BME280;68279;48.964;14.502;2024-03-02T09:34:18;96239.75;;;8.08;100.00
78890;BME280;68279;48.964;14.502;2024-03-02T09:36:44;96236.72;;;8.44;100.00
78890;BME280;68279;48.964;14.502;2024-03-02T09:39:10;96236.09;;;8.52;100.00
78890;BME280;68279;48.964;14.502;2024-03-02T09:41:41;96234.25;;;8.47;97.82
78890;BME280;68279;48.964;14.502;2024-03-02T09:44:06;96226.88;;;8.63;97.49
78890;BME280;68279;48.964;14.502;2024-03-02T09:46:32;96229.63;;;8.77;95.32
78890;BME280;68279;48.964;14.502;2024-03-02T09:48:58;96229.19;;;9.07;97.89
78890;BME280;68279;48.964;14.502;2024-03-02T09:51:23;96226.88;;;8.63;91.57
78890;BME280;68279;48.964;14.502;2024-03-02T09:53:49;96219.81;;;8.91;91.78
78890;BME280;68279;48.964;14.502;2024-03-02T09:56:16;96211.91;;;8.86;91.72
78890;BME280;68279;48.964;14.502;2024-03-02T09:58:44;96217.44;;;8.90;94.47
78890;BME280;68279;48.964;14.502;2024-03-02T10:01:09;96213.53;;;8.63;93.56
78890;BME280;68279;48.964;14.502;2024-03-02T10:03:38;96221.03;;;8.99;94.15
78890;BME280;68279;48.964;14.502;2024-03-02T10:06:26;96225.06;;;9.15;93.85
78890;BME280;68279;48.964;14.502;2024-03-02T10:08:52;96229.69;;;9.28;92.71
78890;BME280;68279;48.964;14.502;2024-03-02T10:11:35;96232.94;;;9.06;90.99
78890;BME280;68279;48.964;14.502;2024-03-02T10:14:13;96227.56;;;8.93;91.64
78890;BME280;68279;48.964;14.502;2024-03-02T10:16:41;96231.91;;;9.21;91.65
78890;BME280;68279;48.964;14.502;2024-03-02T10:19:23;96234.50;;;9.07;93.13
78890;BME280;68279;48.964;14.502;2024-03-02T10:21:50;96236.50;;;9.34;94.38
78890;BME280;68279;48.964;14.502;2024-03-02T10:24:21;96229.66;;;9.47;90.99
78890;BME280;68279;48.964;14.502;2024-03-02T10:26:47;96224.13;;;9.57;89.75
78890;BME280;68279;48.964;14.502;2024-03-02T10:29:13;96226.41;;;9.31;90.83
78890;BME280;68279;48.964;14.502;2024-03-02T10:31:40;96233.28;;;9.38;94.36
78890;BME280;68279;48.964;14.502;2024-03-02T10:34:07;96226.25;;;9.42;91.63
78890;BME280;68279;48.964;14.502;2024-03-02T10:36:36;96231.28;;;9.11;90.65
78890;BME280;68279;48.964;14.502;2024-03-02T10:39:05;96234.31;;;8.85;93.01
78890;BME280;68279;48.964;14.502;2024-03-02T10:41:36;96232.22;;;8.82;95.47
78890;BME280;68279;48.964;14.502;2024-03-02T10:44:03;96229.03;;;9.18;94.15
78890;BME280;68279;48.964;14.502;2024-03-02T10:46:31;96231.50;;;8.95;95.08
78890;BME280;68279;48.964;14.502;2024-03-02T10:48:58;96221.94;;;8.75;95.31
78890;BME280;68279;48.964;14.502;2024-03-02T10:51:29;96217.59;;;8.79;98.41
78890;BME280;68279;48.964;14.502;2024-03-02T10:53:57;96219.09;;;9.04;97.03
78890;BME280;68279;48.964;14.502;2024-03-02T10:56:34;96220.69;;;9.05;93.55
78890;BME280;68279;48.964;14.502;2024-03-02T11:01:32;96210.44;;;9.45;92.90
78890;BME280;68279;48.964;14.502;2024-03-02T11:03:58;96204.53;;;9.62;91.77
78890;BME280;68279;48.964;14.502;2024-03-02T11:06:28;96200.53;;;9.64;89.46
78890;BME280;68279;48.964;14.502;2024-03-02T11:08:58;96203.22;;;10.33;92.58
78890;BME280;68279;48.964;14.502;2024-03-02T11:11:30;96206.88;;;10.51;91.63
78890;BME280;68279;48.964;14.502;2024-03-02T11:14:01;96207.56;;;10.70;89.16
78890;BME280;68279;48.964;14.502;2024-03-02T11:16:35;96201.91;;;10.72;88.40
78890;BME280;68279;48.964;14.502;2024-03-02T11:19:21;96198.53;;;11.02;86.92
78890;BME280;68279;48.964;14.502;2024-03-02T11:21:48;96189.38;;;11.40;83.58
78890;BME280;68279;48.964;14.502;2024-03-02T11:27:01;96194.09;;;11.20;85.65
78890;BME280;68279;48.964;14.502;2024-03-02T11:32:05;96189.66;;;10.57;84.48
78890;BME280;68279;48.964;14.502;2024-03-02T11:34:33;96184.69;;;10.64;86.22
78890;BME280;68279;48.964;14.502;2024-03-02T11:37:00;96170.75;;;10.40;87.33
78890;BME280;68279;48.964;14.502;2024-03-02T11:39:27;96172.44;;;10.49;88.70
78890;BME280;68279;48.964;14.502;2024-03-02T11:41:52;96177.69;;;10.91;85.72
78890;BME280;68279;48.964;14.502;2024-03-02T11:44:18;96167.66;;;11.19;87.23
78890;BME280;68279;48.964;14.502;2024-03-02T11:47:01;96167.91;;;11.31;84.15
78890;BME280;68279;48.964;14.502;2024-03-02T11:49:40;96166.50;;;11.11;83.67
78890;BME280;68279;48.964;14.502;2024-03-02T11:52:08;96176.47;;;11.42;83.50
78890;BME280;68279;48.964;14.502;2024-03-02T11:54:39;96168.75;;;11.40;82.80
78890;BME280;68279;48.964;14.502;2024-03-02T11:57:06;96162.72;;;11.66;80.99
78890;BME280;68279;48.964;14.502;2024-03-02T11:59:32;96159.72;;;11.58;80.59
78890;BME280;68279;48.964;14.502;2024-03-02T12:01:59;96152.38;;;11.42;84.47
78890;BME280;68279;48.964;14.502;2024-03-02T12:04:26;96148.06;;;11.63;82.17
78890;BME280;68279;48.964;14.502;2024-03-02T12:06:56;96158.50;;;11.73;80.70
78890;BME280;68279;48.964;14.502;2024-03-02T12:09:22;96154.09;;;12.08;79.29
78890;BME280;68279;48.964;14.502;2024-03-02T12:11:47;96153.72;;;12.41;78.52
78890;BME280;68279;48.964;14.502;2024-03-02T12:14:13;96154.66;;;12.62;77.02
78890;BME280;68279;48.964;14.502;2024-03-02T12:16:39;96144.91;;;13.10;77.27
78890;BME280;68279;48.964;14.502;2024-03-02T12:19:06;96151.06;;;13.19;76.64
78890;BME280;68279;48.964;14.502;2024-03-02T12:21:31;96142.22;;;12.92;79.19
78890;BME280;68279;48.964;14.502;2024-03-02T12:23:57;96137.63;;;13.10;75.07
78890;BME280;68279;48.964;14.502;2024-03-02T12:26:23;96134.16;;;13.18;75.47
78890;BME280;68279;48.964;14.502;2024-03-02T12:28:49;96133.66;;;13.16;73.70
78890;BME280;68279;48.964;14.502;2024-03-02T12:31:15;96128.03;;;13.00;74.79
78890;BME280;68279;48.964;14.502;2024-03-02T12:33:41;96125.66;;;12.73;74.25
78890;BME280;68279;48.964;14.502;2024-03-02T12:36:10;96126.38;;;12.22;75.02
78890;BME280;68279;48.964;14.502;2024-03-02T12:38:37;96120.59;;;11.80;76.51
78890;BME280;68279;48.964;14.502;2024-03-02T12:41:03;96135.16;;;11.96;79.15
78890;BME280;68279;48.964;14.502;2024-03-02T12:43:31;96118.94;;;12.10;79.56
78890;BME280;68279;48.964;14.502;2024-03-02T12:45:58;96112.91;;;11.96;79.12
78890;BME280;68279;48.964;14.502;2024-03-02T12:48:23;96115.72;;;11.90;80.14
78890;BME280;68279;48.964;14.502;2024-03-02T12:50:49;96115.63;;;11.73;80.88
78890;BME280;68279;48.964;14.502;2024-03-02T12:53:15;96113.50;;;11.53;79.59
78890;BME280;68279;48.964;14.502;2024-03-02T12:55:42;96115.84;;;11.15;82.02
78890;BME280;68279;48.964;14.502;2024-03-02T12:58:19;96108.59;;;10.93;82.14